createdAt,value
2019-04-03T02:22:22.005Z,31.50
2019-04-03T02:24:52.528Z,31.70
2019-04-03T02:27:23.289Z,31.80
2019-04-03T02:29:54.396Z,31.90
2019-04-03T02:32:27.081Z,32.00
2019-04-03T02:34:58.563Z,32.10
2019-04-03T02:37:29.520Z,32.20
2019-04-03T02:40:00.595Z,32.30
2019-04-03T02:45:22.780Z,32.50
2019-04-03T02:47:51.250Z,32.60
2019-04-03T02:50:24.603Z,32.70
2019-04-03T02:52:58.712Z,32.90
2019-04-03T02:55:29.070Z,33.00
2019-04-03T02:57:59.865Z,33.10
2019-04-03T03:00:33.238Z,33.30
2019-04-03T03:03:02.817Z,33.40
2019-04-03T03:05:34.186Z,33.50
2019-04-03T03:08:08.227Z,33.60
2019-04-03T03:10:37.274Z,33.70
2019-04-03T03:13:08.472Z,33.80
2019-04-03T03:15:39.174Z,33.90
2019-04-03T03:18:10.315Z,34.00
2019-04-03T03:20:41.149Z,34.20
2019-04-03T03:23:12.649Z,34.30
2019-04-03T03:25:43.751Z,34.40
2019-04-03T03:28:15.243Z,34.40
2019-04-03T03:30:57.941Z,34.50
2019-04-03T03:33:29.984Z,34.60
2019-04-03T03:35:53.599Z,34.70
2019-04-03T03:38:27.277Z,34.70
2019-04-03T03:40:56.978Z,34.80
2019-04-03T03:43:27.846Z,34.90
2019-04-03T03:45:58.879Z,34.90
2019-04-03T03:48:30.009Z,35.00
2019-04-03T03:51:03.170Z,35.10
2019-04-03T03:53:34.506Z,35.20
2019-04-03T03:56:06.198Z,35.20
2019-04-03T03:58:36.904Z,35.40
2019-04-03T04:01:07.876Z,35.50
2019-04-03T04:03:41.116Z,35.60
2019-04-03T04:06:11.308Z,35.60
2019-04-03T04:08:44.111Z,35.80
2019-04-03T04:11:14.476Z,35.90
2019-04-03T04:13:47.914Z,36.00
2019-04-03T04:16:17.493Z,36.30
2019-04-03T04:18:49.485Z,36.40
2019-04-03T04:21:22.557Z,36.40
2019-04-03T04:23:56.019Z,36.40
2019-04-03T04:26:26.567Z,36.40
2019-04-03T04:28:57.220Z,36.30
2019-04-03T04:31:28.185Z,36.20
2019-04-03T04:33:59.391Z,36.10
2019-04-03T04:36:30.439Z,36.00
2019-04-03T04:39:01.502Z,35.90
2019-04-03T04:41:33.120Z,35.80
2019-04-03T04:44:03.747Z,35.70
2019-04-03T04:46:34.929Z,35.60
2019-04-03T04:49:05.624Z,35.40
2019-04-03T04:51:36.964Z,35.40
2019-04-03T04:54:07.893Z,35.30
2019-04-03T04:56:38.650Z,35.30
2019-04-03T04:59:09.220Z,35.30
2019-04-03T05:01:40.036Z,35.30
2019-04-03T05:04:10.626Z,35.30
2019-04-03T05:06:41.479Z,35.20
2019-04-03T05:09:12.839Z,35.20
2019-04-03T05:11:43.680Z,35.10
2019-04-03T05:14:15.800Z,35.10
2019-04-03T05:16:47.230Z,35.00
2019-04-03T05:19:19.435Z,35.00
2019-04-03T05:22:11.476Z,35.10
2019-04-03T05:24:43.435Z,35.20
2019-04-03T05:27:14.127Z,35.30
2019-04-03T05:29:45.060Z,35.40
2019-04-03T05:32:15.651Z,35.60
2019-04-03T05:34:46.520Z,35.70
2019-04-03T05:37:20.020Z,35.90
2019-04-03T05:39:49.970Z,35.90
2019-04-03T05:42:20.657Z,36.10
2019-04-03T05:44:51.680Z,36.20
2019-04-03T05:47:22.336Z,36.40
2019-04-03T05:49:55.598Z,36.50
2019-04-03T05:52:26.165Z,36.60
2019-04-03T05:54:57.030Z,36.70
2019-04-03T05:57:29.456Z,36.80
2019-04-03T06:00:02.104Z,36.80
2019-04-03T06:02:32.664Z,36.90
2019-04-03T06:05:06.285Z,37.00
2019-04-03T06:07:35.803Z,37.10
2019-04-03T06:10:07.658Z,37.20
2019-04-03T06:12:38.484Z,37.40
2019-04-03T06:15:10.303Z,37.40
2019-04-03T06:17:41.164Z,37.50
2019-04-03T06:20:11.997Z,37.40
2019-04-03T06:22:43.189Z,37.50
2019-04-03T06:25:14.508Z,37.40
2019-04-03T06:27:46.377Z,37.40
2019-04-03T06:30:18.047Z,37.40
2019-04-03T06:32:48.740Z,37.30
2019-04-03T06:35:19.512Z,37.30
2019-04-03T06:37:52.494Z,37.20
2019-04-03T06:40:22.470Z,37.10
2019-04-03T06:42:53.144Z,37.10
2019-04-03T06:45:26.154Z,37.00
2019-04-03T06:47:55.662Z,37.00
2019-04-03T06:50:26.267Z,37.00
2019-04-03T06:52:57.365Z,37.00
2019-04-03T06:55:28.279Z,37.00
2019-04-03T06:57:58.986Z,37.00
2019-04-03T07:00:30.202Z,36.90
2019-04-03T07:03:03.094Z,36.80
2019-04-03T07:05:33.435Z,36.70
2019-04-03T07:08:05.039Z,36.50
2019-04-03T07:10:36.630Z,36.20
2019-04-03T07:13:08.010Z,36.00
2019-04-03T07:15:38.888Z,35.70
2019-04-03T07:18:09.595Z,35.50
2019-04-03T07:20:40.843Z,35.20
2019-04-03T07:23:11.581Z,35.00
2019-04-03T07:25:42.150Z,34.80
2019-04-03T07:28:13.458Z,34.60
2019-04-03T07:30:44.462Z,34.40
2019-04-03T07:33:15.325Z,34.10
2019-04-03T07:35:46.432Z,33.80
2019-04-03T07:38:17.219Z,33.70
2019-04-03T07:40:47.972Z,33.50
2019-04-03T07:43:18.864Z,33.30
2019-04-03T07:45:49.550Z,33.10
2019-04-03T07:48:20.157Z,32.80
2019-04-03T07:50:51.177Z,32.60
2019-04-03T07:53:21.878Z,32.40
2019-04-03T07:55:54.998Z,32.10
2019-04-03T07:58:25.735Z,31.90
2019-04-03T08:00:56.500Z,31.70
2019-04-03T08:03:27.440Z,31.60
2019-04-03T08:05:59.212Z,31.40
2019-04-03T08:08:30.491Z,31.30
2019-04-03T08:11:02.224Z,31.00
2019-04-03T08:13:33.782Z,30.70
2019-04-03T08:16:04.368Z,30.40
2019-04-03T08:18:34.896Z,30.20
2019-04-03T08:21:05.992Z,29.90
2019-04-03T08:23:37.567Z,29.60
2019-04-03T08:26:10.968Z,29.00
2019-04-03T08:28:40.971Z,28.50
2019-04-03T08:31:12.371Z,28.00
2019-04-03T08:33:43.302Z,27.70
2019-04-03T08:36:24.315Z,27.40
2019-04-03T08:38:46.492Z,27.30
2019-04-03T08:41:17.299Z,27.30
2019-04-03T08:43:48.343Z,27.20
2019-04-03T08:46:19.369Z,27.20
2019-04-03T08:48:50.109Z,27.20
2019-04-03T08:51:21.002Z,27.20
2019-04-03T08:53:53.908Z,27.20
2019-04-03T08:56:23.848Z,27.20
2019-04-03T08:59:00.053Z,27.20
2019-04-03T09:01:31.289Z,27.20
2019-04-03T09:04:02.419Z,27.30
2019-04-03T09:06:33.290Z,27.30
2019-04-03T09:09:05.446Z,27.40
2019-04-03T09:14:26.363Z,27.50
2019-04-03T09:16:57.036Z,27.60
2019-04-03T09:19:28.086Z,27.70
2019-04-03T09:22:01.256Z,27.80
2019-04-03T09:24:32.253Z,27.80
2019-04-03T09:27:03.298Z,27.90
2019-04-03T09:29:34.154Z,28.00
2019-04-03T09:32:05.069Z,28.10
2019-04-03T09:34:35.923Z,28.20
2019-04-03T09:37:07.203Z,28.20
2019-04-03T09:39:38.071Z,28.20
2019-04-03T09:42:10.817Z,28.20
2019-04-03T09:44:41.750Z,28.20
2019-04-03T09:47:12.852Z,28.20
2019-04-03T09:49:44.183Z,28.20
2019-04-03T09:52:15.237Z,28.20
2019-04-03T09:54:46.303Z,28.20
2019-04-03T09:57:41.238Z,28.20
2019-04-03T10:00:12.511Z,28.20
2019-04-03T10:02:43.245Z,28.30
2019-04-03T10:05:14.430Z,28.30
2019-04-03T10:07:45.301Z,28.40
2019-04-03T10:10:17.207Z,28.40
2019-04-03T10:12:48.896Z,28.40
2019-04-03T10:15:20.434Z,28.40
2019-04-03T10:17:51.067Z,28.50
2019-04-03T10:20:22.006Z,28.40
2019-04-03T10:22:55.815Z,28.50
2019-04-03T10:25:25.002Z,28.40
2019-04-03T10:27:56.748Z,28.50
2019-04-03T10:30:27.806Z,28.40
2019-04-03T10:32:59.551Z,28.40
2019-04-03T10:35:31.714Z,28.30
2019-04-03T10:38:02.333Z,28.30
2019-04-03T10:40:33.129Z,28.30
2019-04-03T10:43:05.715Z,28.30
2019-04-03T10:45:36.344Z,28.20
2019-04-03T10:48:07.422Z,28.20
2019-04-03T10:50:38.639Z,28.20
2019-04-03T10:53:10.423Z,28.20
2019-04-03T10:55:41.552Z,28.10
2019-04-03T10:58:12.439Z,28.10
2019-04-03T11:00:43.613Z,28.10
2019-04-03T11:03:15.268Z,28.00
2019-04-03T11:05:46.167Z,28.00
2019-04-03T11:08:17.089Z,28.00
2019-04-03T11:10:48.598Z,27.90
2019-04-03T11:13:19.264Z,28.00
2019-04-03T11:15:50.375Z,27.90
2019-04-03T11:18:21.833Z,27.90
2019-04-03T11:20:52.723Z,27.80
2019-04-03T11:23:36.467Z,27.80
2019-04-03T11:25:56.213Z,27.80
2019-04-03T11:28:27.028Z,27.70
2019-04-03T11:31:01.105Z,27.70
2019-04-03T11:33:30.062Z,27.70
